createdAt,value
2018-06-29T00:00:13.647Z,53.03
2018-06-29T00:02:42.470Z,52.95
2018-06-29T00:05:11.311Z,52.84
2018-06-29T00:07:40.157Z,52.79
2018-06-29T00:10:09.024Z,52.92
2018-06-29T00:12:37.896Z,53.02
2018-06-29T00:18:38.084Z,53.35
2018-06-29T00:21:06.936Z,53.44
2018-06-29T00:23:35.791Z,53.60
2018-06-29T00:26:04.646Z,53.62
2018-06-29T00:28:33.569Z,53.69
2018-06-29T00:31:02.413Z,54.10
2018-06-29T00:33:31.244Z,54.15
2018-06-29T00:36:00.103Z,54.32
2018-06-29T00:38:47.019Z,54.46
2018-06-29T00:41:15.884Z,54.38
2018-06-29T00:43:44.725Z,54.37
2018-06-29T00:46:13.619Z,54.65
2018-06-29T00:48:42.465Z,54.96
2018-06-29T00:51:11.342Z,55.40
2018-06-29T00:53:40.289Z,55.52
2018-06-29T00:56:09.220Z,55.82
2018-06-29T00:58:38.118Z,56.14
2018-06-29T01:01:07.017Z,56.41
2018-06-29T01:03:35.911Z,56.45
2018-06-29T01:06:04.780Z,56.55
2018-06-29T01:08:33.678Z,56.59
2018-06-29T01:11:02.564Z,56.62
2018-06-29T01:13:31.459Z,56.82
2018-06-29T01:16:00.358Z,56.82
2018-06-29T01:18:29.332Z,56.92
2018-06-29T01:20:58.220Z,57.41
2018-06-29T01:23:33.521Z,57.69
2018-06-29T01:26:02.367Z,57.63
2018-06-29T01:28:31.269Z,57.77
2018-06-29T01:31:00.141Z,57.73
2018-06-29T01:33:29.032Z,58.07
2018-06-29T01:35:57.886Z,57.95
2018-06-29T01:38:26.807Z,58.24
2018-06-29T01:40:55.686Z,58.49
2018-06-29T01:43:24.508Z,58.69
2018-06-29T01:45:54.822Z,58.54
2018-06-29T01:48:23.652Z,58.70
2018-06-29T01:50:52.513Z,58.53
2018-06-29T01:53:21.361Z,58.81
2018-06-29T01:55:50.248Z,59.22
2018-06-29T01:58:19.074Z,58.98
2018-06-29T02:00:47.939Z,59.43
2018-06-29T02:03:16.836Z,59.41
2018-06-29T02:05:45.726Z,59.40
2018-06-29T02:08:16.971Z,59.59
2018-06-29T02:10:45.827Z,59.85
2018-06-29T02:13:14.652Z,60.16
2018-06-29T02:15:43.540Z,60.06
2018-06-29T02:18:12.415Z,60.31
2018-06-29T02:20:41.321Z,60.33
2018-06-29T02:23:10.213Z,60.45
2018-06-29T02:25:39.158Z,60.40
2018-06-29T02:28:08.264Z,61.16
2018-06-29T02:30:37.244Z,61.49
2018-06-29T02:33:06.288Z,61.73
2018-06-29T02:35:35.233Z,61.85
2018-06-29T02:38:04.252Z,62.20
2018-06-29T02:40:33.104Z,62.80
2018-06-29T02:43:02.045Z,62.67
2018-06-29T02:45:30.904Z,63.15
2018-06-29T02:47:59.785Z,62.92
2018-06-29T02:50:28.636Z,63.20
2018-06-29T02:52:57.688Z,63.47
2018-06-29T02:55:26.539Z,63.54
2018-06-29T02:57:55.405Z,64.42
2018-06-29T03:00:24.283Z,64.63
2018-06-29T03:02:53.176Z,64.62
2018-06-29T03:05:22.086Z,64.87
2018-06-29T03:07:50.996Z,64.99
2018-06-29T03:10:19.926Z,65.27
2018-06-29T03:12:48.833Z,65.41
2018-06-29T03:15:17.722Z,65.36
2018-06-29T03:17:46.641Z,65.67
2018-06-29T03:20:15.543Z,66.02
2018-06-29T03:22:44.422Z,66.55
2018-06-29T03:25:13.353Z,66.62
2018-06-29T03:27:42.201Z,66.90
2018-06-29T03:30:11.049Z,66.87
2018-06-29T03:32:39.886Z,67.05
2018-06-29T03:35:08.904Z,67.20
2018-06-29T03:37:37.766Z,67.26
2018-06-29T03:40:06.644Z,67.25
2018-06-29T03:42:35.536Z,67.51
2018-06-29T03:45:04.486Z,67.68
2018-06-29T03:47:33.334Z,67.70
2018-06-29T03:50:02.203Z,67.84
2018-06-29T03:52:31.037Z,67.43
2018-06-29T03:54:59.894Z,67.61
2018-06-29T03:57:31.763Z,67.46
2018-06-29T04:00:00.633Z,67.54
2018-06-29T04:02:29.508Z,67.87
2018-06-29T04:04:58.348Z,67.48
2018-06-29T04:07:27.203Z,67.84
2018-06-29T04:09:56.064Z,67.78
2018-06-29T04:12:24.992Z,67.34
2018-06-29T04:14:53.862Z,67.87
2018-06-29T04:17:22.727Z,67.56
2018-06-29T04:19:52.998Z,68.09
2018-06-29T04:22:21.890Z,68.04
2018-06-29T04:24:50.785Z,67.90
2018-06-29T04:27:19.684Z,68.06
2018-06-29T04:29:48.540Z,68.20
2018-06-29T04:32:17.442Z,68.38
2018-06-29T04:34:46.325Z,68.48
2018-06-29T04:37:15.178Z,68.36
2018-06-29T04:39:44.037Z,68.87
2018-06-29T04:42:15.836Z,68.70
2018-06-29T04:44:44.693Z,68.91
2018-06-29T04:47:13.578Z,68.81
2018-06-29T04:49:42.494Z,68.70
2018-06-29T04:52:11.369Z,68.63
2018-06-29T04:54:40.287Z,68.63
2018-06-29T04:57:09.134Z,68.55
2018-06-29T04:59:38.021Z,68.35
2018-06-29T05:02:06.886Z,68.41
2018-06-29T05:04:35.830Z,68.36
2018-06-29T05:07:04.709Z,68.38
2018-06-29T05:09:33.741Z,68.20
2018-06-29T05:12:02.618Z,68.09
2018-06-29T05:14:31.502Z,68.13
2018-06-29T05:17:00.353Z,67.70
2018-06-29T05:19:29.228Z,67.63
2018-06-29T05:21:58.088Z,67.26
2018-06-29T05:24:27.190Z,67.28
2018-06-29T05:26:56.177Z,67.22
2018-06-29T05:29:25.078Z,67.39
2018-06-29T05:31:53.903Z,67.36
2018-06-29T05:34:22.848Z,67.77
2018-06-29T05:36:51.711Z,67.58
2018-06-29T05:39:20.598Z,67.47
2018-06-29T05:41:49.432Z,66.93
2018-06-29T05:44:18.298Z,66.51
2018-06-29T05:46:47.186Z,65.85
2018-06-29T05:49:16.127Z,65.79
2018-06-29T05:51:44.975Z,65.17
2018-06-29T05:54:13.810Z,64.11
2018-06-29T05:56:42.663Z,63.67
2018-06-29T05:59:11.523Z,63.05
2018-06-29T06:01:40.804Z,62.23
2018-06-29T06:04:10.021Z,61.52
2018-06-29T06:06:38.876Z,60.57
2018-06-29T06:09:09.504Z,59.74
2018-06-29T06:11:38.365Z,58.81
2018-06-29T06:14:07.342Z,57.48
2018-06-29T06:16:36.190Z,56.33
2018-06-29T06:19:41.728Z,54.79
2018-06-29T06:22:10.577Z,53.17
2018-06-29T06:24:39.439Z,51.58
2018-06-29T06:27:08.321Z,49.89
2018-06-29T06:30:13.352Z,48.35
2018-06-29T06:32:42.326Z,45.98
2018-06-29T06:35:11.198Z,40.92
2018-06-29T06:37:40.037Z,34.79
2018-06-29T06:40:08.896Z,30.90
2018-06-29T06:42:37.732Z,28.43
2018-06-29T06:45:06.688Z,26.26
2018-06-29T06:47:35.529Z,24.11
2018-06-29T06:50:04.395Z,22.90
2018-06-29T06:52:33.273Z,21.79
2018-06-29T06:55:02.184Z,20.68
2018-06-29T06:57:31.068Z,20.38
2018-06-29T06:59:59.962Z,19.21
2018-06-29T07:02:28.835Z,18.82
2018-06-29T07:04:57.718Z,18.70
2018-06-29T07:07:26.586Z,18.17
2018-06-29T07:09:55.383Z,18.22
2018-06-29T07:12:24.288Z,17.78
2018-06-29T07:14:53.131Z,17.26
2018-06-29T07:17:22.015Z,16.09
2018-06-29T07:19:50.897Z,16.11
2018-06-29T07:22:19.780Z,15.93
2018-06-29T07:24:48.656Z,15.25
2018-06-29T07:27:17.561Z,14.91
2018-06-29T07:29:46.435Z,15.22
2018-06-29T07:32:15.360Z,14.78
2018-06-29T07:34:44.228Z,14.89
2018-06-29T07:37:13.166Z,14.68
2018-06-29T07:39:42.009Z,14.81
2018-06-29T07:42:10.917Z,14.83
2018-06-29T07:44:39.757Z,14.02
2018-06-29T07:47:08.596Z,13.46
2018-06-29T07:49:37.459Z,13.80
2018-06-29T07:52:06.278Z,12.67
2018-06-29T07:54:35.150Z,12.36
2018-06-29T07:57:04.047Z,12.67
2018-06-29T07:59:32.923Z,12.88
2018-06-29T08:02:01.797Z,12.73
2018-06-29T08:04:30.624Z,11.89
2018-06-29T08:06:59.512Z,12.21
2018-06-29T08:09:28.371Z,12.09
2018-06-29T08:11:57.252Z,11.86
2018-06-29T08:14:26.095Z,11.64
2018-06-29T08:16:55.057Z,11.31
2018-06-29T08:19:23.850Z,10.89
2018-06-29T08:21:52.742Z,11.47
2018-06-29T08:24:21.642Z,11.70
2018-06-29T08:26:50.480Z,11.50
2018-06-29T08:29:19.364Z,11.46
2018-06-29T08:31:48.217Z,10.89
2018-06-29T08:34:17.071Z,10.43
2018-06-29T08:36:45.964Z,10.75
2018-06-29T08:39:14.767Z,10.65
2018-06-29T08:41:43.603Z,10.51
2018-06-29T08:44:12.612Z,10.88
2018-06-29T08:46:41.492Z,11.63
2018-06-29T08:49:10.323Z,11.45
2018-06-29T08:51:39.215Z,10.97
2018-06-29T08:54:08.114Z,10.63
2018-06-29T08:56:36.994Z,11.16
2018-06-29T08:59:05.881Z,10.93
2018-06-29T09:01:34.780Z,11.11
2018-06-29T09:04:03.665Z,11.27
2018-06-29T09:06:32.601Z,11.24
2018-06-29T09:09:01.722Z,10.81
2018-06-29T09:11:30.588Z,11.21
2018-06-29T09:13:59.449Z,11.45
2018-06-29T09:16:28.300Z,11.35
2018-06-29T09:18:57.179Z,10.64
2018-06-29T09:21:26.035Z,10.51
2018-06-29T09:23:54.869Z,10.91
2018-06-29T09:26:23.733Z,11.16
2018-06-29T09:29:10.089Z,11.97
2018-06-29T09:31:38.951Z,11.91
2018-06-29T09:34:07.819Z,11.20
2018-06-29T09:36:36.717Z,11.49
2018-06-29T09:39:08.001Z,11.42
2018-06-29T09:41:36.865Z,12.60
2018-06-29T09:44:05.797Z,11.68
2018-06-29T09:46:34.980Z,11.30
2018-06-29T09:49:04.073Z,10.68
2018-06-29T09:51:32.969Z,11.59
2018-06-29T09:54:01.872Z,12.03
2018-06-29T09:56:30.688Z,12.02
2018-06-29T09:58:59.516Z,12.01
2018-06-29T10:01:28.637Z,12.14
2018-06-29T10:03:57.296Z,12.60
2018-06-29T10:06:26.175Z,13.03
2018-06-29T10:08:55.029Z,12.78
2018-06-29T10:11:59.505Z,12.52
2018-06-29T10:14:28.502Z,12.32
2018-06-29T10:16:57.266Z,12.39
2018-06-29T10:19:26.127Z,11.65
2018-06-29T10:21:54.976Z,10.80
2018-06-29T10:24:24.054Z,11.08
2018-06-29T10:26:52.900Z,11.20
2018-06-29T10:29:21.759Z,10.30
2018-06-29T10:31:50.600Z,10.20
2018-06-29T10:34:26.776Z,10.44
2018-06-29T10:36:55.652Z,10.54
2018-06-29T10:39:24.514Z,10.83
2018-06-29T10:41:53.398Z,10.72
2018-06-29T10:44:22.227Z,9.94
2018-06-29T10:46:51.119Z,10.90
2018-06-29T10:49:19.974Z,10.05
2018-06-29T10:51:48.848Z,10.75
2018-06-29T10:54:17.685Z,10.76
2018-06-29T10:56:50.529Z,9.62
2018-06-29T10:59:19.381Z,10.17
2018-06-29T11:01:48.260Z,10.22
2018-06-29T11:04:17.138Z,10.00
2018-06-29T11:06:46.019Z,10.63
2018-06-29T11:09:14.882Z,10.07
2018-06-29T11:11:43.743Z,11.08
2018-06-29T11:14:12.598Z,9.81
2018-06-29T11:16:41.436Z,9.43
2018-06-29T11:19:13.598Z,10.05
2018-06-29T11:21:42.440Z,10.28
2018-06-29T11:24:11.330Z,9.08
2018-06-29T11:26:40.174Z,9.17
2018-06-29T11:29:09.008Z,9.67
2018-06-29T11:31:37.883Z,8.79
2018-06-29T11:34:06.951Z,9.38
2018-06-29T11:36:36.051Z,9.24
2018-06-29T11:39:08.090Z,9.83
2018-06-29T11:41:36.925Z,8.98
2018-06-29T11:44:05.886Z,9.50
2018-06-29T11:46:34.811Z,10.09
2018-06-29T11:49:03.643Z,9.32
2018-06-29T11:51:32.566Z,10.20
2018-06-29T11:54:01.545Z,10.82
2018-06-29T11:56:30.446Z,10.89
2018-06-29T11:58:59.433Z,9.79
2018-06-29T12:01:36.884Z,9.84
2018-06-29T12:04:05.791Z,9.66
2018-06-29T12:06:34.655Z,10.42
2018-06-29T12:09:03.903Z,11.54
2018-06-29T12:11:32.857Z,11.40
2018-06-29T12:14:01.741Z,11.19
2018-06-29T12:16:30.744Z,12.34
2018-06-29T12:18:59.937Z,13.00
2018-06-29T12:21:29.150Z,13.47
2018-06-29T12:23:58.323Z,13.78
2018-06-29T12:26:27.390Z,14.05
2018-06-29T12:28:56.220Z,15.39
2018-06-29T12:31:25.408Z,15.58
2018-06-29T12:33:54.611Z,15.83
2018-06-29T12:36:23.725Z,17.11
2018-06-29T12:38:52.725Z,16.41
2018-06-29T12:41:21.898Z,16.39
2018-06-29T12:43:50.959Z,16.95
2018-06-29T12:46:19.980Z,18.09
2018-06-29T12:48:49.124Z,17.95
2018-06-29T12:51:18.209Z,18.16
2018-06-29T12:53:47.070Z,18.68
2018-06-29T12:56:16.020Z,19.71
2018-06-29T12:58:45.166Z,19.99
2018-06-29T13:01:14.223Z,19.58
2018-06-29T13:03:43.391Z,19.74
2018-06-29T13:06:15.340Z,20.29
2018-06-29T13:08:44.302Z,20.70
2018-06-29T13:11:13.489Z,20.67
2018-06-29T13:13:42.607Z,20.61
2018-06-29T13:16:11.969Z,20.75
2018-06-29T13:18:41.124Z,21.14
2018-06-29T13:21:10.318Z,20.95
2018-06-29T13:23:39.292Z,21.00
2018-06-29T13:26:08.540Z,19.44
2018-06-29T13:28:37.604Z,18.69
2018-06-29T13:31:06.846Z,19.24
2018-06-29T13:33:35.980Z,19.44
2018-06-29T13:36:05.087Z,19.91
2018-06-29T13:38:36.727Z,20.55
2018-06-29T13:41:05.713Z,20.37
2018-06-29T13:43:34.751Z,20.02
2018-06-29T13:46:04.177Z,18.33
2018-06-29T13:48:33.029Z,18.24
2018-06-29T13:51:02.149Z,18.50
2018-06-29T13:53:31.430Z,18.54
2018-06-29T13:56:00.520Z,19.23
2018-06-29T13:58:29.735Z,20.18
2018-06-29T14:00:58.961Z,20.06
2018-06-29T14:03:28.026Z,20.31
2018-06-29T14:05:57.145Z,20.96
2018-06-29T14:08:27.609Z,20.94
2018-06-29T14:10:56.884Z,20.56
2018-06-29T14:13:25.826Z,21.54
2018-06-29T14:15:55.096Z,21.41
2018-06-29T14:18:24.189Z,21.76
2018-06-29T14:20:53.303Z,21.50
2018-06-29T14:23:22.490Z,21.91
2018-06-29T14:25:51.453Z,22.41
2018-06-29T14:28:20.441Z,22.64
2018-06-29T14:30:49.758Z,22.46
2018-06-29T14:33:18.837Z,22.00
2018-06-29T14:35:48.190Z,22.12
2018-06-29T14:38:17.312Z,22.38
2018-06-29T14:40:46.293Z,22.36
2018-06-29T14:43:15.212Z,22.45
2018-06-29T14:45:44.096Z,23.31
2018-06-29T14:48:13.412Z,23.19
2018-06-29T14:50:45.400Z,23.54
2018-06-29T14:53:14.535Z,23.68
2018-06-29T14:55:43.704Z,23.96
2018-06-29T14:58:16.771Z,24.11
2018-06-29T15:00:46.280Z,24.45
2018-06-29T15:03:15.338Z,24.46
2018-06-29T15:05:44.490Z,24.79
2018-06-29T15:08:13.811Z,25.04
2018-06-29T15:10:45.288Z,26.03
2018-06-29T15:13:17.106Z,26.05
2018-06-29T15:15:51.482Z,25.95
2018-06-29T15:18:21.030Z,26.72
2018-06-29T15:20:50.401Z,26.05
2018-06-29T15:23:19.792Z,25.80
2018-06-29T15:25:51.162Z,25.94
2018-06-29T15:28:23.465Z,25.96
2018-06-29T15:30:54.670Z,26.19
2018-06-29T15:33:24.275Z,25.66
2018-06-29T15:35:56.994Z,25.79
2018-06-29T15:38:26.492Z,26.52
2018-06-29T15:41:02.154Z,25.89
2018-06-29T15:43:37.555Z,25.87
2018-06-29T15:46:09.996Z,26.26
2018-06-29T15:48:38.885Z,27.97
2018-06-29T15:51:08.441Z,30.09
2018-06-29T15:53:37.291Z,28.37
2018-06-29T15:56:06.314Z,26.98
2018-06-29T15:58:35.188Z,27.19
2018-06-29T16:01:04.076Z,27.00
2018-06-29T16:03:33.023Z,27.59
2018-06-29T16:06:01.939Z,30.98
2018-06-29T16:08:30.883Z,32.25
2018-06-29T16:10:59.850Z,31.07
2018-06-29T16:13:28.804Z,31.16
2018-06-29T16:15:57.918Z,32.10
2018-06-29T16:18:26.925Z,32.61
2018-06-29T16:20:55.783Z,31.86
2018-06-29T16:23:24.696Z,32.29
2018-06-29T16:25:53.576Z,32.95
2018-06-29T16:28:22.644Z,33.24
2018-06-29T16:30:51.559Z,32.80
2018-06-29T16:33:20.510Z,32.96
2018-06-29T16:35:49.473Z,32.99
2018-06-29T16:38:18.264Z,32.76
2018-06-29T16:40:47.154Z,33.27
2018-06-29T16:43:16.000Z,33.03
2018-06-29T16:45:44.891Z,32.96
2018-06-29T16:48:13.804Z,33.26
2018-06-29T16:50:42.693Z,33.35
2018-06-29T16:53:11.557Z,33.62
2018-06-29T16:55:40.458Z,33.64
2018-06-29T16:58:09.452Z,34.12
2018-06-29T17:00:38.233Z,34.04
2018-06-29T17:03:07.144Z,34.03
2018-06-29T17:05:36.043Z,34.18
2018-06-29T17:08:05.345Z,34.23
2018-06-29T17:10:34.264Z,34.24
2018-06-29T17:13:03.110Z,34.18
2018-06-29T17:15:32.093Z,34.46
2018-06-29T17:18:00.982Z,34.73
2018-06-29T17:20:29.862Z,34.44
2018-06-29T17:22:58.834Z,34.47
2018-06-29T17:25:27.646Z,34.48
2018-06-29T17:27:56.533Z,34.59
2018-06-29T17:30:25.516Z,34.69
2018-06-29T17:32:54.450Z,34.82
2018-06-29T17:35:23.327Z,34.46
2018-06-29T17:37:52.307Z,34.84
2018-06-29T17:40:21.275Z,34.98
2018-06-29T17:42:50.193Z,35.02
2018-06-29T17:45:19.053Z,35.23
2018-06-29T17:47:48.027Z,35.26
2018-06-29T17:50:16.923Z,35.45
2018-06-29T17:52:45.883Z,36.05
2018-06-29T17:55:14.813Z,36.28
2018-06-29T17:57:43.751Z,36.50
2018-06-29T18:00:12.692Z,36.75
2018-06-29T18:02:44.562Z,36.87
2018-06-29T18:05:13.526Z,37.06
2018-06-29T18:07:42.468Z,37.22
2018-06-29T18:10:11.435Z,37.71
2018-06-29T18:12:40.329Z,37.89
2018-06-29T18:15:09.131Z,37.74
2018-06-29T18:17:38.304Z,38.01
2018-06-29T18:20:07.142Z,38.04
2018-06-29T18:22:36.370Z,38.11
2018-06-29T18:25:05.411Z,38.15
2018-06-29T18:27:34.231Z,38.34
2018-06-29T18:30:03.110Z,38.55
2018-06-29T18:32:32.095Z,38.74
2018-06-29T18:35:01.193Z,38.83
2018-06-29T18:37:30.048Z,39.25
2018-06-29T18:39:58.889Z,39.63
2018-06-29T18:42:27.931Z,39.82
2018-06-29T18:44:56.921Z,40.16
2018-06-29T18:47:37.672Z,40.19
2018-06-29T18:50:06.570Z,40.37
2018-06-29T18:52:35.417Z,40.75
2018-06-29T18:55:04.403Z,40.90
2018-06-29T18:57:33.329Z,41.31
2018-06-29T19:00:02.177Z,41.35
2018-06-29T19:02:31.003Z,41.56
2018-06-29T19:04:59.898Z,41.58
2018-06-29T19:07:28.763Z,42.10
2018-06-29T19:09:58.842Z,42.28
2018-06-29T19:12:27.689Z,42.21
2018-06-29T19:14:56.709Z,42.04
2018-06-29T19:17:25.477Z,41.90
2018-06-29T19:19:54.396Z,41.85
2018-06-29T19:22:23.278Z,42.02
2018-06-29T19:24:52.232Z,41.63
2018-06-29T19:27:21.186Z,41.92
2018-06-29T19:29:49.950Z,41.80
2018-06-29T19:32:18.917Z,41.55
2018-06-29T19:34:47.755Z,41.64
2018-06-29T19:37:16.652Z,41.77
2018-06-29T19:39:45.539Z,41.89
2018-06-29T19:42:14.480Z,41.55
2018-06-29T19:44:43.512Z,42.09
2018-06-29T19:47:12.388Z,41.93
2018-06-29T19:49:41.317Z,42.45
2018-06-29T19:52:10.153Z,42.35
2018-06-29T19:54:39.062Z,42.48
2018-06-29T19:57:07.904Z,42.46
2018-06-29T19:59:36.750Z,42.80
2018-06-29T20:02:07.867Z,42.85
2018-06-29T20:04:34.665Z,42.91
2018-06-29T20:07:03.528Z,43.22
2018-06-29T20:09:32.412Z,43.54
2018-06-29T20:12:01.372Z,43.88
2018-06-29T20:14:30.351Z,43.93
2018-06-29T20:16:59.172Z,43.96
2018-06-29T20:19:28.077Z,44.39
2018-06-29T20:21:57.037Z,44.62
2018-06-29T20:24:25.843Z,44.99
2018-06-29T20:26:54.852Z,45.25
2018-06-29T20:29:23.869Z,45.48
2018-06-29T20:31:52.728Z,45.96
2018-06-29T20:34:21.688Z,46.35
2018-06-29T20:36:50.594Z,46.52
2018-06-29T20:39:19.515Z,47.02
2018-06-29T20:41:48.397Z,47.14
2018-06-29T20:44:17.487Z,47.30
2018-06-29T20:46:46.375Z,47.79
2018-06-29T20:49:15.386Z,47.92
2018-06-29T20:51:44.270Z,48.38
2018-06-29T20:54:13.165Z,48.59
2018-06-29T20:56:42.150Z,48.77
2018-06-29T20:59:11.015Z,48.96
2018-06-29T21:01:40.020Z,49.00
2018-06-29T21:04:08.947Z,49.47
2018-06-29T21:06:37.916Z,49.53
2018-06-29T21:09:08.347Z,49.93
2018-06-29T21:11:37.241Z,50.27
2018-06-29T21:14:06.197Z,50.19
2018-06-29T21:16:35.187Z,50.54
2018-06-29T21:19:04.308Z,51.19
2018-06-29T21:21:33.229Z,51.92
2018-06-29T21:24:02.183Z,52.52
2018-06-29T21:26:31.284Z,52.66
2018-06-29T21:29:00.349Z,52.54
2018-06-29T21:31:29.486Z,52.72
2018-06-29T21:33:58.341Z,52.81
2018-06-29T21:36:29.733Z,53.00
2018-06-29T21:38:58.689Z,53.33
2018-06-29T21:41:27.613Z,53.64
2018-06-29T21:43:56.628Z,53.74
2018-06-29T21:46:25.639Z,54.12
2018-06-29T21:48:54.575Z,54.21
2018-06-29T21:51:23.588Z,54.33
2018-06-29T21:53:52.567Z,54.63
2018-06-29T21:56:21.453Z,54.79
2018-06-29T21:58:50.394Z,54.79
2018-06-29T22:01:19.417Z,54.71
2018-06-29T22:03:48.334Z,54.85
2018-06-29T22:06:19.675Z,54.63
2018-06-29T22:08:48.666Z,55.01
2018-06-29T22:11:17.579Z,55.27
2018-06-29T22:13:46.860Z,55.34
2018-06-29T22:16:15.774Z,55.34
2018-06-29T22:18:44.644Z,55.47
2018-06-29T22:21:13.675Z,55.85
2018-06-29T22:23:42.696Z,56.33
2018-06-29T22:26:11.532Z,56.17
2018-06-29T22:28:40.479Z,56.33
2018-06-29T22:31:09.418Z,56.42
2018-06-29T22:33:38.388Z,56.64
2018-06-29T22:36:07.292Z,57.15
2018-06-29T22:38:36.278Z,57.38
2018-06-29T22:41:05.329Z,57.21
2018-06-29T22:43:34.304Z,57.26
2018-06-29T22:46:03.282Z,57.30
2018-06-29T22:48:38.406Z,57.15
2018-06-29T22:51:07.300Z,57.53
2018-06-29T22:53:36.333Z,57.90
2018-06-29T22:56:05.256Z,57.91
2018-06-29T22:58:34.180Z,57.89
2018-06-29T23:01:03.124Z,58.15
2018-06-29T23:03:49.767Z,58.25
2018-06-29T23:06:18.666Z,58.50
2018-06-29T23:08:54.969Z,58.88
2018-06-29T23:11:23.882Z,59.02
2018-06-29T23:13:52.717Z,59.06
2018-06-29T23:16:21.835Z,59.31
2018-06-29T23:18:50.863Z,59.43
2018-06-29T23:21:19.774Z,59.72
2018-06-29T23:23:48.647Z,59.91
2018-06-29T23:26:17.573Z,59.99
2018-06-29T23:28:46.490Z,60.30
2018-06-29T23:31:15.385Z,60.26
2018-06-29T23:33:44.347Z,60.30
2018-06-29T23:36:13.303Z,60.37
2018-06-29T23:38:42.312Z,60.51
2018-06-29T23:41:11.226Z,60.57
2018-06-29T23:43:40.178Z,60.98
2018-06-29T23:46:09.183Z,61.29
2018-06-29T23:48:38.132Z,61.28
2018-06-29T23:51:07.298Z,61.56
2018-06-29T23:53:36.236Z,61.72
2018-06-29T23:56:05.155Z,61.62
2018-06-29T23:58:34.092Z,61.95
